National Weather Service Raw Text Product

Displaying AFOS PIL: TAFDSM Received: 2018-02-09 17:38 UTC


706 
FTUS43 KDMX 091738
TAFDSM
TAF
KDSM 091738Z 0918/1018 01009KT P6SM SCT020 BKN110
     FM100200 01007KT P6SM VCSH OVC060
     FM100400 36010KT P6SM -SN OVC050
     FM100600 01007KT 3SM -SN OVC023
      TEMPO 1007/1010 1SM -SN OVC025
     FM101000 36006KT P6SM VCSH OVC030
     FM101200 35005KT P6SM OVC070=